createdAt,value
2023-05-25T00:04:28.466Z,10.00
2023-05-25T00:07:55.453Z,9.60
2023-05-25T00:11:23.683Z,9.90
2023-05-25T00:14:50.654Z,10.10
2023-05-25T00:18:18.961Z,9.40
2023-05-25T00:21:48.558Z,9.40
2023-05-25T00:25:15.565Z,9.10
2023-05-25T00:28:42.721Z,9.50
2023-05-25T00:32:10.682Z,9.40
2023-05-25T00:35:37.554Z,9.00
2023-05-25T00:39:04.594Z,8.80
2023-05-25T00:42:31.551Z,9.30
2023-05-25T00:46:01.531Z,8.80
2023-05-25T00:49:29.428Z,9.70
2023-05-25T00:52:57.261Z,9.30
2023-05-25T00:56:29.322Z,9.90
2023-05-25T00:59:59.623Z,10.20
2023-05-25T01:03:36.390Z,10.50
2023-05-25T01:07:06.321Z,10.30
2023-05-25T01:10:35.233Z,10.70
2023-05-25T01:14:03.166Z,10.70
2023-05-25T01:17:30.421Z,11.50
2023-05-25T01:21:13.441Z,11.40
2023-05-25T01:24:46.380Z,11.10
2023-05-25T01:28:18.595Z,11.70
2023-05-25T01:31:47.040Z,11.20
2023-05-25T01:35:15.658Z,10.60
2023-05-25T01:38:43.618Z,10.90
2023-05-25T01:42:11.492Z,10.60
2023-05-25T01:45:38.978Z,11.10
2023-05-25T01:49:17.557Z,10.60
2023-05-25T01:52:52.980Z,10.00
2023-05-25T01:56:21.733Z,11.30
2023-05-25T01:59:51.083Z,11.30
2023-05-25T02:03:18.112Z,10.80
2023-05-25T02:06:45.373Z,11.50
2023-05-25T02:10:13.836Z,11.70
2023-05-25T02:13:41.009Z,11.20
2023-05-25T02:17:08.426Z,11.80
2023-05-25T02:20:35.141Z,12.10
2023-05-25T02:24:02.356Z,12.10
2023-05-25T02:27:28.845Z,11.40
2023-05-25T02:30:57.034Z,11.10
2023-05-25T02:34:24.984Z,11.00
2023-05-25T02:37:52.080Z,11.60
2023-05-25T02:41:20.016Z,10.30
2023-05-25T02:44:48.779Z,10.80
2023-05-25T02:48:15.658Z,10.60
2023-05-25T02:51:43.403Z,10.20
2023-05-25T02:55:13.604Z,9.90
2023-05-25T02:58:41.216Z,10.60
2023-05-25T03:02:18.782Z,10.50
2023-05-25T03:05:46.332Z,10.90
2023-05-25T03:09:13.593Z,12.20
2023-05-25T03:12:41.528Z,10.70
2023-05-25T03:16:09.259Z,10.90
2023-05-25T03:19:36.042Z,10.70
2023-05-25T03:23:03.315Z,11.50
2023-05-25T03:26:30.947Z,11.30
2023-05-25T03:29:57.761Z,10.30
2023-05-25T03:33:24.701Z,10.60
2023-05-25T03:36:51.955Z,10.00
2023-05-25T03:40:18.583Z,10.50
2023-05-25T03:43:45.440Z,9.70
2023-05-25T03:47:13.238Z,10.00
2023-05-25T03:50:41.286Z,9.60
2023-05-25T03:54:08.180Z,10.50
2023-05-25T03:57:34.983Z,10.20
2023-05-25T04:01:04.376Z,10.50
2023-05-25T04:04:32.325Z,10.50
2023-05-25T04:07:59.635Z,10.00
2023-05-25T04:11:27.455Z,10.30
2023-05-25T04:14:53.693Z,10.40
2023-05-25T04:18:20.880Z,10.70
2023-05-25T04:21:48.415Z,10.90
2023-05-25T04:25:17.450Z,11.60
2023-05-25T04:28:45.801Z,11.50
2023-05-25T04:32:30.365Z,11.40
2023-05-25T04:36:17.430Z,10.20
2023-05-25T04:39:46.835Z,10.30
2023-05-25T04:43:18.514Z,10.80
2023-05-25T04:46:46.709Z,10.00
2023-05-25T04:50:19.330Z,9.70
2023-05-25T04:53:48.558Z,9.70
2023-05-25T04:57:15.754Z,9.20
2023-05-25T05:00:42.517Z,9.40
2023-05-25T05:04:10.270Z,8.60
2023-05-25T05:07:38.647Z,9.00
2023-05-25T05:11:05.641Z,9.30
2023-05-25T05:14:32.805Z,8.70
2023-05-25T05:18:00.382Z,9.80
2023-05-25T05:21:27.814Z,9.60
2023-05-25T05:24:54.885Z,9.70
2023-05-25T05:28:28.232Z,9.60
2023-05-25T05:31:55.596Z,9.70
2023-05-25T05:35:22.682Z,10.40
2023-05-25T05:38:50.714Z,9.40
2023-05-25T05:42:17.968Z,9.60
2023-05-25T05:45:44.806Z,9.30
2023-05-25T05:49:12.913Z,8.10
2023-05-25T05:52:39.931Z,8.30
2023-05-25T05:56:07.572Z,7.90
2023-05-25T05:59:34.337Z,7.90
2023-05-25T06:03:01.741Z,7.70
2023-05-25T06:06:30.554Z,8.00
2023-05-25T06:09:57.421Z,7.50
2023-05-25T06:13:24.240Z,8.60
2023-05-25T06:16:52.338Z,8.00
2023-05-25T06:20:19.609Z,8.20
2023-05-25T06:23:48.033Z,8.10
2023-05-25T06:27:15.044Z,8.90
2023-05-25T06:30:42.392Z,8.10
2023-05-25T06:34:09.780Z,8.20
2023-05-25T06:37:38.577Z,8.20
2023-05-25T06:41:07.692Z,8.80
2023-05-25T06:44:34.959Z,8.30
2023-05-25T06:48:02.693Z,8.00
2023-05-25T06:51:30.058Z,7.80
2023-05-25T06:54:57.105Z,7.40
2023-05-25T06:58:24.398Z,7.80
2023-05-25T07:01:51.860Z,8.00
2023-05-25T07:05:18.662Z,7.50
2023-05-25T07:08:45.468Z,7.20
2023-05-25T07:12:12.789Z,7.70
2023-05-25T07:15:40.345Z,7.60
2023-05-25T07:19:06.975Z,7.60
2023-05-25T07:22:34.691Z,7.90
2023-05-25T07:26:04.245Z,6.50
2023-05-25T07:29:32.847Z,7.30
2023-05-25T07:32:59.961Z,7.60
2023-05-25T07:36:26.857Z,7.00
2023-05-25T07:39:54.541Z,7.10
2023-05-25T07:43:21.313Z,7.00
2023-05-25T07:46:47.790Z,6.90
2023-05-25T07:50:15.314Z,6.90
2023-05-25T07:53:43.092Z,6.70
2023-05-25T07:57:09.901Z,7.10
2023-05-25T08:00:36.641Z,7.60
2023-05-25T08:04:03.753Z,7.00
2023-05-25T08:07:30.458Z,7.00
2023-05-25T08:10:57.258Z,6.80
2023-05-25T08:14:25.007Z,6.30
2023-05-25T08:17:52.470Z,6.90
2023-05-25T08:21:18.979Z,6.50
2023-05-25T08:24:45.683Z,6.20
2023-05-25T08:28:12.534Z,5.70
2023-05-25T08:31:39.319Z,5.90
2023-05-25T08:35:06.580Z,6.00
2023-05-25T08:38:33.152Z,6.80
2023-05-25T08:41:59.970Z,6.50
2023-05-25T08:49:05.860Z,6.40
2023-05-25T08:52:37.719Z,6.00
2023-05-25T08:56:07.889Z,5.60
2023-05-25T08:59:44.398Z,5.00
2023-05-25T09:03:18.424Z,5.00
2023-05-25T09:06:54.200Z,4.50
2023-05-25T09:10:30.233Z,4.70
2023-05-25T09:13:57.764Z,4.70
2023-05-25T09:17:24.484Z,4.70
2023-05-25T09:20:51.631Z,3.90
2023-05-25T09:24:19.753Z,4.40
2023-05-25T09:27:46.772Z,4.20
2023-05-25T09:31:13.740Z,3.90
2023-05-25T09:34:40.206Z,4.10
2023-05-25T09:38:08.216Z,4.30
2023-05-25T09:41:35.420Z,4.20
2023-05-25T09:45:03.060Z,3.90
2023-05-25T09:48:30.696Z,4.40
2023-05-25T09:51:57.646Z,4.70
2023-05-25T09:55:25.079Z,4.20
2023-05-25T09:58:53.863Z,4.90
2023-05-25T10:02:20.781Z,4.10
2023-05-25T10:05:50.184Z,4.30
2023-05-25T10:09:19.717Z,4.10
2023-05-25T10:12:47.295Z,4.20
2023-05-25T10:16:17.934Z,3.90
2023-05-25T10:19:49.581Z,3.80
2023-05-25T10:23:18.289Z,4.00
2023-05-25T10:26:52.566Z,3.80
2023-05-25T10:30:20.376Z,4.00
2023-05-25T10:33:51.885Z,3.50
2023-05-25T10:37:20.851Z,3.60
2023-05-25T10:40:51.038Z,3.70
2023-05-25T10:44:19.263Z,3.90
2023-05-25T10:47:47.969Z,3.30
2023-05-25T10:51:15.007Z,3.80
2023-05-25T10:54:43.658Z,4.00
2023-05-25T10:58:14.844Z,3.80
2023-05-25T11:01:53.966Z,3.40
2023-05-25T11:05:35.799Z,3.40
2023-05-25T11:09:04.407Z,3.30
2023-05-25T11:12:31.639Z,3.60
2023-05-25T11:16:18.929Z,3.40
2023-05-25T11:19:51.788Z,3.90
2023-05-25T11:23:29.613Z,3.50
2023-05-25T11:26:58.476Z,3.40
2023-05-25T11:30:32.234Z,2.70
2023-05-25T11:34:01.268Z,3.30
2023-05-25T11:37:31.928Z,3.10
2023-05-25T11:40:58.847Z,3.20
2023-05-25T11:44:34.391Z,3.40
2023-05-25T11:48:01.593Z,3.00
2023-05-25T11:51:29.886Z,2.70
2023-05-25T11:54:58.214Z,3.20
2023-05-25T11:58:25.206Z,5.10
2023-05-25T12:02:02.920Z,2.90
2023-05-25T12:05:38.385Z,3.00
2023-05-25T12:09:12.130Z,2.70
2023-05-25T12:12:43.998Z,3.20
2023-05-25T12:16:11.318Z,2.80
2023-05-25T12:19:38.552Z,2.90
2023-05-25T12:23:05.531Z,2.40
2023-05-25T12:26:33.024Z,2.70
2023-05-25T12:30:02.905Z,2.80
2023-05-25T12:33:29.943Z,2.80
2023-05-25T12:36:57.968Z,2.60
2023-05-25T12:40:28.836Z,2.90
2023-05-25T12:43:55.536Z,3.10
2023-05-25T12:47:24.089Z,2.80
2023-05-25T12:51:03.232Z,2.30
2023-05-25T12:54:41.226Z,2.40
2023-05-25T12:58:09.648Z,2.70
2023-05-25T13:01:36.596Z,2.50
2023-05-25T13:05:03.337Z,2.60
2023-05-25T13:08:30.441Z,2.80
2023-05-25T13:11:57.751Z,2.20
2023-05-25T13:15:24.777Z,2.60
2023-05-25T13:18:51.589Z,2.60
2023-05-25T13:22:18.231Z,2.30
2023-05-25T13:25:46.499Z,2.80
2023-05-25T13:29:13.489Z,2.40
2023-05-25T13:32:40.570Z,2.80
2023-05-25T13:36:09.962Z,2.00
2023-05-25T13:39:37.591Z,2.50
2023-05-25T13:43:07.320Z,2.20
2023-05-25T13:46:37.926Z,2.40
2023-05-25T13:50:07.020Z,2.40
2023-05-25T13:53:33.643Z,2.50
2023-05-25T13:57:02.515Z,2.20
2023-05-25T14:00:29.258Z,2.60
2023-05-25T14:03:56.634Z,2.90
2023-05-25T14:07:24.103Z,2.40
2023-05-25T14:10:50.920Z,2.60
2023-05-25T14:14:30.086Z,2.80
2023-05-25T14:17:58.242Z,2.60
2023-05-25T14:21:26.279Z,2.90
2023-05-25T14:24:53.673Z,2.50
2023-05-25T14:28:21.379Z,2.80
2023-05-25T14:31:48.486Z,2.30
2023-05-25T14:35:15.244Z,2.80
2023-05-25T14:38:44.505Z,3.00
2023-05-25T14:42:12.736Z,2.50
2023-05-25T14:45:40.031Z,2.80
2023-05-25T14:49:10.171Z,2.40
2023-05-25T14:52:39.342Z,2.90
2023-05-25T14:56:11.104Z,2.90
2023-05-25T14:59:38.922Z,2.50
2023-05-25T15:03:06.068Z,3.00
2023-05-25T15:06:37.120Z,3.00
2023-05-25T15:10:04.848Z,2.90
2023-05-25T15:13:32.089Z,2.80
2023-05-25T15:16:58.854Z,2.90
2023-05-25T15:20:26.827Z,2.90
2023-05-25T15:23:54.677Z,2.60
2023-05-25T15:27:22.834Z,3.10
2023-05-25T15:30:50.551Z,2.90
2023-05-25T15:34:17.747Z,3.00
2023-05-25T15:37:44.760Z,2.90
2023-05-25T15:41:11.694Z,3.10
2023-05-25T15:44:38.453Z,2.70
2023-05-25T15:48:10.817Z,3.00
2023-05-25T15:51:38.123Z,2.80
2023-05-25T15:55:06.711Z,2.80
2023-05-25T15:58:35.609Z,3.00
2023-05-25T16:02:02.508Z,3.60
2023-05-25T16:05:30.128Z,3.30
2023-05-25T16:08:59.355Z,2.90
2023-05-25T16:12:29.981Z,3.00
2023-05-25T16:15:57.614Z,3.20
2023-05-25T16:19:24.502Z,2.70
2023-05-25T16:22:51.724Z,3.30
2023-05-25T16:26:18.511Z,3.00
2023-05-25T16:29:45.161Z,2.40
2023-05-25T16:33:13.775Z,3.10
2023-05-25T16:36:41.146Z,3.10
2023-05-25T16:40:09.253Z,2.80
2023-05-25T16:43:36.420Z,3.00
2023-05-25T16:47:03.684Z,3.70
2023-05-25T16:50:30.613Z,3.70
2023-05-25T16:53:57.571Z,3.00
2023-05-25T16:57:24.408Z,2.70
2023-05-25T17:00:51.593Z,3.10
2023-05-25T17:04:18.649Z,3.20
2023-05-25T17:07:48.075Z,3.10
2023-05-25T17:11:14.889Z,3.00
2023-05-25T17:14:41.604Z,3.10
2023-05-25T17:18:10.461Z,3.10
2023-05-25T17:21:37.808Z,3.30
2023-05-25T17:25:05.212Z,3.40
2023-05-25T17:28:33.350Z,2.80
2023-05-25T17:32:00.997Z,3.10
2023-05-25T17:35:27.689Z,3.70
2023-05-25T17:38:55.567Z,3.30
2023-05-25T17:42:22.631Z,3.30
2023-05-25T17:45:49.981Z,3.30
2023-05-25T17:49:17.437Z,3.60
2023-05-25T17:52:46.969Z,3.30
2023-05-25T17:56:13.686Z,3.70
2023-05-25T17:59:40.392Z,3.70
2023-05-25T18:03:08.332Z,4.00
2023-05-25T18:06:35.435Z,3.80
2023-05-25T18:10:05.136Z,3.30
2023-05-25T18:13:31.995Z,3.30
2023-05-25T18:16:58.749Z,3.50
2023-05-25T18:20:25.551Z,3.80
2023-05-25T18:23:52.942Z,3.40
2023-05-25T18:27:22.079Z,3.80
2023-05-25T18:30:48.915Z,3.70
2023-05-25T18:34:16.506Z,3.80
2023-05-25T18:37:43.392Z,3.50
2023-05-25T18:41:13.517Z,3.60
2023-05-25T18:44:53.435Z,3.50
2023-05-25T18:48:23.279Z,3.70
2023-05-25T18:51:50.130Z,3.90
2023-05-25T18:55:17.297Z,3.40
2023-05-25T18:58:45.510Z,3.90
2023-05-25T19:02:12.537Z,3.60
2023-05-25T19:05:40.763Z,3.80
2023-05-25T19:09:09.427Z,3.60
2023-05-25T19:12:37.674Z,3.20
2023-05-25T19:16:06.194Z,2.90
2023-05-25T19:19:33.535Z,4.10
2023-05-25T19:23:02.389Z,3.70
2023-05-25T19:26:31.868Z,3.30
2023-05-25T19:30:05.654Z,3.60
2023-05-25T19:33:38.017Z,3.60
2023-05-25T19:37:11.534Z,3.60
2023-05-25T19:40:42.600Z,4.00
2023-05-25T19:44:10.644Z,3.50
2023-05-25T19:47:46.038Z,3.70
2023-05-25T19:51:14.483Z,3.30
2023-05-25T19:54:42.104Z,3.50
2023-05-25T19:58:12.974Z,3.40
2023-05-25T20:01:42.091Z,3.60
2023-05-25T20:05:15.501Z,3.50
2023-05-25T20:08:42.854Z,3.30
2023-05-25T20:12:12.091Z,3.60
2023-05-25T20:15:40.392Z,3.80
2023-05-25T20:19:13.074Z,3.60
2023-05-25T20:22:40.240Z,3.50
2023-05-25T20:26:08.117Z,3.60
2023-05-25T20:29:36.749Z,3.90
2023-05-25T20:33:09.800Z,3.90
2023-05-25T20:36:43.127Z,4.40
2023-05-25T20:40:11.977Z,3.80
2023-05-25T20:43:39.460Z,4.00
2023-05-25T20:47:07.450Z,4.30
2023-05-25T20:50:34.275Z,4.10
2023-05-25T20:54:01.049Z,4.80
2023-05-25T20:57:29.808Z,4.60
2023-05-25T21:00:57.354Z,4.50
2023-05-25T21:04:24.149Z,4.40
2023-05-25T21:07:51.075Z,4.60
2023-05-25T21:11:17.491Z,4.80
2023-05-25T21:14:44.178Z,5.10
2023-05-25T21:18:13.529Z,5.00
2023-05-25T21:21:41.612Z,5.10
2023-05-25T21:25:10.254Z,4.80
2023-05-25T21:28:37.319Z,4.60
2023-05-25T21:32:04.292Z,4.50
2023-05-25T21:35:30.825Z,4.90
2023-05-25T21:38:58.163Z,4.60
2023-05-25T21:42:25.176Z,5.20
2023-05-25T21:45:51.822Z,4.50
2023-05-25T21:49:18.522Z,4.80
2023-05-25T21:52:45.380Z,4.70
2023-05-25T21:56:12.227Z,4.90
2023-05-25T21:59:39.175Z,3.90
2023-05-25T22:03:07.224Z,4.20
2023-05-25T22:06:34.314Z,4.80
2023-05-25T22:10:02.241Z,5.10
2023-05-25T22:13:29.445Z,4.20
2023-05-25T22:16:56.804Z,3.90
2023-05-25T22:20:24.028Z,4.60
2023-05-25T22:23:50.967Z,4.40
2023-05-25T22:27:17.985Z,5.00
2023-05-25T22:30:45.586Z,4.50
2023-05-25T22:34:12.514Z,4.50
2023-05-25T22:37:41.863Z,5.60
2023-05-25T22:41:08.910Z,4.20
2023-05-25T22:44:36.410Z,4.70
2023-05-25T22:48:03.668Z,4.30
2023-05-25T22:51:30.881Z,4.00
2023-05-25T22:54:57.983Z,5.00
2023-05-25T22:58:24.768Z,4.70
2023-05-25T23:01:51.409Z,4.90
2023-05-25T23:05:18.337Z,4.40
2023-05-25T23:08:46.836Z,4.70
2023-05-25T23:12:13.530Z,4.80
2023-05-25T23:15:41.044Z,4.30
2023-05-25T23:19:08.152Z,4.20
2023-05-25T23:22:35.348Z,4.80
2023-05-25T23:26:02.814Z,4.90
2023-05-25T23:29:30.057Z,4.70
2023-05-25T23:32:57.232Z,4.60
2023-05-25T23:36:26.535Z,4.90
2023-05-25T23:39:53.437Z,5.00
2023-05-25T23:43:20.029Z,4.60
2023-05-25T23:46:46.851Z,4.80
2023-05-25T23:50:16.587Z,4.80
2023-05-25T23:53:43.460Z,4.50
2023-05-25T23:57:10.192Z,4.80
